Time;durP1;ratioP1;P1;durP2;ratioP2;P2;SDS_P1;SDS_P2;PMS_P1;PMS_P2;Temp;Humidity;BMP_temperature;BMP_pressure;BME280_temperature;BME280_humidity;BME280_pressure;Samples;Min_cycle;Max_cycle;Signal;HPM_P1;HPM_P2
2023/08/20 00:00:54;;;;;;;17.40;15.68;;;;;;;;;;5018336;28;20228;-84
2023/08/20 00:03:24;;;;;;;18.95;16.77;;;;;;;;;;5015945;28;20286;-84
2023/08/20 00:05:52;;;;;;;18.27;16.60;;;;;;;;;;5024210;28;20231;-83
2023/08/20 00:08:18;;;;;;;18.40;16.27;;;;;;;;;;5046631;28;20208;-84
2023/08/20 00:10:48;;;;;;;18.33;16.70;;;;;;;;;;5021320;28;20589;-84
2023/08/20 00:13:14;;;;;;;19.10;17.10;;;;;;;;;;5035160;28;20222;-84
2023/08/20 00:15:42;;;;;;;19.83;17.50;;;;;;;;;;5016150;28;20256;-86
2023/08/20 00:18:08;;;;;;;22.38;18.13;;;;;;;;;;5035196;28;20219;-84
2023/08/20 00:20:36;;;;;;;20.27;18.27;;;;;;;;;;5039228;28;20271;-85
2023/08/20 00:23:02;;;;;;;19.92;17.92;;;;;;;;;;5029001;28;20219;-83
2023/08/20 00:25:28;;;;;;;19.58;17.70;;;;;;;;;;5038891;28;20296;-85
2023/08/20 00:27:56;;;;;;;20.35;18.08;;;;;;;;;;5020488;28;21058;-84
2023/08/20 00:30:24;;;;;;;20.58;18.58;;;;;;;;;;5031582;28;20220;-84
2023/08/20 00:32:53;;;;;;;20.88;18.40;;;;;;;;;;5041194;28;20276;-84
2023/08/20 00:35:19;;;;;;;21.05;18.92;;;;;;;;;;5043080;28;20222;-80
2023/08/20 00:37:49;;;;;;;20.25;18.20;;;;;;;;;;5024830;28;20261;-83
2023/08/20 00:40:15;;;;;;;19.15;17.15;;;;;;;;;;5028728;28;20200;-82
2023/08/20 00:42:41;;;;;;;19.92;17.90;;;;;;;;;;5016143;28;20228;-85
2023/08/20 00:45:09;;;;;;;20.40;18.17;;;;;;;;;;5025263;28;20602;-85
2023/08/20 00:47:35;;;;;;;19.98;16.60;;;;;;;;;;5019709;28;20272;-84
2023/08/20 00:50:03;;;;;;;18.90;16.00;;;;;;;;;;5017775;28;20591;-85
2023/08/20 00:52:28;;;;;;;19.60;17.55;;;;;;;;;;5044744;28;20691;-85
2023/08/20 00:54:56;;;;;;;20.17;17.63;;;;;;;;;;5012007;28;20687;-85
2023/08/20 00:57:22;;;;;;;20.27;17.92;;;;;;;;;;5037218;28;20291;-84
2023/08/20 00:59:50;;;;;;;20.48;17.52;;;;;;;;;;5023904;28;20591;-83
2023/08/20 01:02:18;;;;;;;19.95;16.60;;;;;;;;;;5034013;28;20215;-83
2023/08/20 01:04:46;;;;;;;18.77;16.70;;;;;;;;;;5034132;28;20877;-87
2023/08/20 01:07:20;;;;;;;17.33;15.70;;;;;;;;;;5000576;28;20267;-86
2023/08/20 01:10:01;;;;;;;18.25;16.45;;;;;;;;;;5049412;28;20223;-85
2023/08/20 01:12:26;;;;;;;22.67;18.02;;;;;;;;;;5037005;28;20227;-84
2023/08/20 01:14:54;;;;;;;18.08;16.20;;;;;;;;;;5038538;28;20211;-85
2023/08/20 01:17:22;;;;;;;22.58;17.83;;;;;;;;;;5019504;28;20236;-86
2023/08/20 01:19:48;;;;;;;20.83;18.67;;;;;;;;;;5026111;28;20207;-86
2023/08/20 01:22:35;;;;;;;19.33;17.33;;;;;;;;;;5016632;28;20227;-84
2023/08/20 01:25:34;;;;;;;23.00;20.00;;;;;;;;;;5052714;28;20817;-85
2023/08/20 01:28:28;;;;;;;22.30;19.20;;;;;;;;;;5055500;28;20582;-85
2023/08/20 01:30:58;;;;;;;20.90;18.70;;;;;;;;;;5018517;28;20216;-86
2023/08/20 01:33:27;;;;;;;22.42;19.13;;;;;;;;;;5021560;28;20221;-83
2023/08/20 01:35:55;;;;;;;23.70;19.20;;;;;;;;;;5022916;28;20206;-84
2023/08/20 01:38:24;;;;;;;27.40;19.88;;;;;;;;;;5016337;28;20220;-86
2023/08/20 01:40:52;;;;;;;21.83;19.63;;;;;;;;;;5036439;28;20242;-84
2023/08/20 01:43:17;;;;;;;24.27;21.73;;;;;;;;;;5020433;28;20246;-86
2023/08/20 01:45:43;;;;;;;23.95;21.08;;;;;;;;;;5028194;28;20249;-85
2023/08/20 01:48:08;;;;;;;24.08;19.92;;;;;;;;;;5021785;28;20218;-85
2023/08/20 01:50:35;;;;;;;21.35;19.10;;;;;;;;;;5022645;28;20229;-84
2023/08/20 01:53:00;;;;;;;21.15;18.48;;;;;;;;;;5033373;28;20592;-83
2023/08/20 01:55:28;;;;;;;21.83;18.38;;;;;;;;;;5027404;28;20215;-85
2023/08/20 01:57:54;;;;;;;20.10;17.98;;;;;;;;;;5006901;28;20703;-84
2023/08/20 02:00:19;;;;;;;22.08;18.58;;;;;;;;;;5031677;28;20227;-86
2023/08/20 02:02:45;;;;;;;25.23;17.73;;;;;;;;;;5030778;28;20277;-84
2023/08/20 02:05:10;;;;;;;21.27;16.90;;;;;;;;;;5031073;28;20218;-85
2023/08/20 02:07:37;;;;;;;21.00;18.38;;;;;;;;;;5016351;28;20215;-86
2023/08/20 02:10:07;;;;;;;21.05;17.10;;;;;;;;;;5032347;28;20202;-85
2023/08/20 02:12:32;;;;;;;20.73;17.80;;;;;;;;;;5032743;28;20226;-84
2023/08/20 02:15:00;;;;;;;21.70;19.23;;;;;;;;;;5020483;28;20204;-86
2023/08/20 02:17:26;;;;;;;24.05;19.70;;;;;;;;;;5029602;28;20215;-84
2023/08/20 02:19:53;;;;;;;23.30;18.65;;;;;;;;;;5047802;28;20211;-84
2023/08/20 02:22:20;;;;;;;22.27;19.88;;;;;;;;;;5014070;28;20231;-85
2023/08/20 02:24:46;;;;;;;21.05;18.70;;;;;;;;;;5021816;28;20306;-86
2023/08/20 02:27:13;;;;;;;21.38;19.17;;;;;;;;;;5005023;28;20543;-85
2023/08/20 02:29:41;;;;;;;24.20;21.42;;;;;;;;;;5024056;28;20221;-83
2023/08/20 02:32:06;;;;;;;23.38;20.70;;;;;;;;;;5030343;28;20222;-85
2023/08/20 02:34:32;;;;;;;24.63;22.08;;;;;;;;;;5038536;28;20727;-82
2023/08/20 02:36:57;;;;;;;23.77;21.33;;;;;;;;;;5022701;28;20230;-84
2023/08/20 02:39:26;;;;;;;25.17;22.35;;;;;;;;;;5038220;28;21237;-83
2023/08/20 02:41:54;;;;;;;26.30;21.65;;;;;;;;;;5031155;28;20229;-84
2023/08/20 02:44:24;;;;;;;20.80;18.75;;;;;;;;;;5023366;28;20230;-84
2023/08/20 02:46:52;;;;;;;22.67;20.55;;;;;;;;;;5021166;28;20740;-84
2023/08/20 02:49:18;;;;;;;29.52;20.95;;;;;;;;;;5043922;28;20214;-83
2023/08/20 02:51:46;;;;;;;20.67;18.65;;;;;;;;;;5027408;28;20326;-84
2023/08/20 02:54:14;;;;;;;23.13;20.77;;;;;;;;;;5019152;28;20691;-83
2023/08/20 02:56:40;;;;;;;21.15;19.05;;;;;;;;;;5053370;28;20229;-83
2023/08/20 02:59:08;;;;;;;23.85;19.65;;;;;;;;;;5021503;28;20211;-81
2023/08/20 03:01:36;;;;;;;21.70;19.02;;;;;;;;;;5037570;28;20230;-81
2023/08/20 03:04:02;;;;;;;20.15;18.00;;;;;;;;;;5025697;28;20225;-83
2023/08/20 03:06:28;;;;;;;21.05;18.92;;;;;;;;;;5043266;28;20223;-82
2023/08/20 03:08:53;;;;;;;19.45;17.50;;;;;;;;;;5056159;28;20211;-81
2023/08/20 03:11:22;;;;;;;18.35;16.55;;;;;;;;;;5025077;28;20233;-82
2023/08/20 03:13:47;;;;;;;18.50;16.73;;;;;;;;;;5054961;28;20249;-82
2023/08/20 03:16:15;;;;;;;20.80;18.65;;;;;;;;;;5045872;28;20223;-84
2023/08/20 03:18:43;;;;;;;19.38;17.58;;;;;;;;;;5036215;28;20222;-82
2023/08/20 03:21:11;;;;;;;18.88;17.08;;;;;;;;;;5029928;28;20215;-82
2023/08/20 03:23:37;;;;;;;19.90;17.13;;;;;;;;;;5030657;28;20245;-82
2023/08/20 03:26:02;;;;;;;18.45;16.70;;;;;;;;;;5046304;28;20710;-81
2023/08/20 03:28:28;;;;;;;18.20;16.27;;;;;;;;;;5035513;28;20215;-81
2023/08/20 03:30:53;;;;;;;19.05;17.02;;;;;;;;;;5064257;28;20225;-81
2023/08/20 03:33:24;;;;;;;18.25;16.27;;;;;;;;;;5027119;28;20219;-82
2023/08/20 03:35:53;;;;;;;19.38;17.30;;;;;;;;;;5037916;28;20274;-81
2023/08/20 03:38:18;;;;;;;19.02;17.02;;;;;;;;;;5038718;28;20218;-81
2023/08/20 03:40:46;;;;;;;19.20;17.30;;;;;;;;;;5045963;28;20222;-82
2023/08/20 03:43:14;;;;;;;18.15;16.33;;;;;;;;;;5024823;28;20769;-82
2023/08/20 03:45:43;;;;;;;17.55;16.00;;;;;;;;;;5024583;28;20231;-82
2023/08/20 03:48:09;;;;;;;17.90;16.13;;;;;;;;;;5055982;28;20222;-82
2023/08/20 03:50:34;;;;;;;17.25;15.55;;;;;;;;;;5016226;28;20242;-83
2023/08/20 03:53:00;;;;;;;19.02;17.13;;;;;;;;;;5020889;28;20223;-83
2023/08/20 03:55:26;;;;;;;17.65;15.63;;;;;;;;;;5028403;28;20215;-83
2023/08/20 03:57:52;;;;;;;19.45;17.45;;;;;;;;;;5030983;28;20281;-83
2023/08/20 04:04:17;;;;;;;17.20;15.45;;;;;;;;;;5063227;28;20226;-85
2023/08/20 04:06:43;;;;;;;17.00;15.40;;;;;;;;;;5034831;28;20225;-83
2023/08/20 04:09:10;;;;;;;16.65;15.07;;;;;;;;;;5029450;28;20207;-84
2023/08/20 04:11:36;;;;;;;18.65;16.48;;;;;;;;;;5024570;28;20286;-84
2023/08/20 04:14:02;;;;;;;18.17;16.33;;;;;;;;;;5011774;28;20212;-84
2023/08/20 04:16:31;;;;;;;19.00;16.38;;;;;;;;;;5025756;28;20219;-82
2023/08/20 04:18:56;;;;;;;36.00;19.92;;;;;;;;;;5033380;28;20222;-86
2023/08/20 04:21:24;;;;;;;20.95;18.63;;;;;;;;;;5016462;28;20656;-85
2023/08/20 04:23:49;;;;;;;18.50;16.40;;;;;;;;;;5007073;28;20230;-85
2023/08/20 04:26:19;;;;;;;22.63;19.30;;;;;;;;;;5015803;28;20720;-85
2023/08/20 04:28:45;;;;;;;22.20;18.15;;;;;;;;;;5013146;28;20770;-85
2023/08/20 04:31:13;;;;;;;21.30;18.98;;;;;;;;;;5002651;28;20261;-85
2023/08/20 04:33:54;;;;;;;24.30;20.50;;;;;;;;;;5035625;28;20275;-84
2023/08/20 04:36:30;;;;;;;21.85;18.08;;;;;;;;;;5026956;28;20315;-85
2023/08/20 04:38:58;;;;;;;25.13;20.90;;;;;;;;;;5029890;28;20213;-84
2023/08/20 04:41:26;;;;;;;24.35;21.77;;;;;;;;;;5022246;28;20215;-85
2023/08/20 04:43:54;;;;;;;67.53;20.67;;;;;;;;;;5016144;28;20284;-85
2023/08/20 04:46:28;;;;;;;183.20;17.88;;;;;;;;;;5029211;28;20318;-85
2023/08/20 04:48:55;;;;;;;173.25;19.38;;;;;;;;;;5017951;28;20622;-85
2023/08/20 04:51:20;;;;;;;55.40;17.73;;;;;;;;;;5024851;28;20241;-84
2023/08/20 04:53:47;;;;;;;147.05;18.63;;;;;;;;;;5026277;28;20229;-84
2023/08/20 04:56:13;;;;;;;177.23;17.05;;;;;;;;;;5015263;28;20211;-84
2023/08/20 04:58:38;;;;;;;161.23;19.42;;;;;;;;;;5008223;28;20222;-84
2023/08/20 05:01:08;;;;;;;91.10;16.20;;;;;;;;;;5034582;28;20215;-85
2023/08/20 05:03:34;;;;;;;129.45;16.38;;;;;;;;;;5037324;28;20223;-85
2023/08/20 05:06:00;;;;;;;106.75;16.42;;;;;;;;;;5014945;28;20234;-85
2023/08/20 05:08:30;;;;;;;122.57;18.13;;;;;;;;;;5013402;28;20302;-84
2023/08/20 05:10:56;;;;;;;97.53;17.27;;;;;;;;;;5019369;28;20301;-84
2023/08/20 05:13:26;;;;;;;117.63;18.05;;;;;;;;;;5020589;28;20219;-85
2023/08/20 05:15:56;;;;;;;92.10;19.77;;;;;;;;;;5005293;28;20233;-84
2023/08/20 05:18:27;;;;;;;64.32;18.02;;;;;;;;;;5025888;28;20218;-84
2023/08/20 05:20:53;;;;;;;48.80;19.27;;;;;;;;;;5018483;28;20214;-84
2023/08/20 05:23:21;;;;;;;65.15;18.88;;;;;;;;;;5015331;28;20256;-83
2023/08/20 05:25:49;;;;;;;60.50;17.75;;;;;;;;;;5020596;28;20805;-84
2023/08/20 05:28:15;;;;;;;27.20;16.83;;;;;;;;;;5016203;28;20517;-83
2023/08/20 05:30:43;;;;;;;41.42;16.40;;;;;;;;;;5032412;28;20229;-84
2023/08/20 05:33:11;;;;;;;38.88;15.13;;;;;;;;;;5038382;28;20298;-84
2023/08/20 05:35:36;;;;;;;24.50;14.80;;;;;;;;;;5011454;28;20276;-84
2023/08/20 05:38:02;;;;;;;14.82;13.55;;;;;;;;;;5017023;28;20713;-83
2023/08/20 05:40:30;;;;;;;15.63;13.93;;;;;;;;;;5044590;28;20234;-83
2023/08/20 05:42:58;;;;;;;41.40;15.02;;;;;;;;;;5015845;28;20220;-83
2023/08/20 05:45:23;;;;;;;47.92;14.27;;;;;;;;;;4996258;28;20225;-84
2023/08/20 05:47:50;;;;;;;50.10;14.13;;;;;;;;;;5017916;28;20253;-84
2023/08/20 05:50:18;;;;;;;17.85;12.57;;;;;;;;;;5014766;28;20224;-83
2023/08/20 05:52:46;;;;;;;27.80;12.73;;;;;;;;;;5016956;28;20230;-84
2023/08/20 05:55:12;;;;;;;17.17;12.30;;;;;;;;;;5007126;28;20214;-85
2023/08/20 05:57:42;;;;;;;49.78;13.52;;;;;;;;;;5016663;28;20260;-84
2023/08/20 06:00:08;;;;;;;12.25;11.02;;;;;;;;;;5034548;28;20265;-84
2023/08/20 06:02:38;;;;;;;13.00;11.90;;;;;;;;;;5017484;28;20710;-86
2023/08/20 06:05:08;;;;;;;12.05;11.13;;;;;;;;;;5022827;28;20239;-85
2023/08/20 06:07:36;;;;;;;12.60;11.60;;;;;;;;;;5033739;28;20626;-82
2023/08/20 06:10:01;;;;;;;13.50;12.13;;;;;;;;;;5046756;28;20207;-83
2023/08/20 06:12:29;;;;;;;13.85;12.32;;;;;;;;;;5029259;28;20227;-85
2023/08/20 06:14:59;;;;;;;20.17;13.43;;;;;;;;;;5018848;28;20226;-83
2023/08/20 06:17:25;;;;;;;14.05;12.80;;;;;;;;;;5029486;28;20274;-84
2023/08/20 06:19:50;;;;;;;13.63;12.48;;;;;;;;;;5013525;28;20246;-84
2023/08/20 06:22:18;;;;;;;13.55;12.45;;;;;;;;;;5035430;28;20284;-81
2023/08/20 06:24:44;;;;;;;14.60;13.32;;;;;;;;;;5011626;28;20683;-83
2023/08/20 06:27:14;;;;;;;14.20;12.82;;;;;;;;;;5026365;28;20314;-83
2023/08/20 06:29:40;;;;;;;13.40;12.15;;;;;;;;;;5016177;28;20884;-84
2023/08/20 06:32:08;;;;;;;14.73;13.40;;;;;;;;;;5009063;28;20219;-83
2023/08/20 06:34:36;;;;;;;13.98;12.75;;;;;;;;;;5045198;28;20668;-85
2023/08/20 06:37:07;;;;;;;14.00;12.80;;;;;;;;;;5028986;28;20225;-81
2023/08/20 06:39:32;;;;;;;15.52;12.77;;;;;;;;;;5037098;28;20218;-84
2023/08/20 06:42:00;;;;;;;13.95;12.82;;;;;;;;;;5031802;28;20218;-84
2023/08/20 06:44:30;;;;;;;12.93;11.85;;;;;;;;;;5032718;28;20227;-83
2023/08/20 06:46:56;;;;;;;14.20;13.00;;;;;;;;;;5036720;28;20279;-80
2023/08/20 06:49:21;;;;;;;13.77;12.68;;;;;;;;;;5040427;28;20218;-85
2023/08/20 06:51:49;;;;;;;14.38;12.43;;;;;;;;;;5014138;28;20408;-84
2023/08/20 06:54:15;;;;;;;13.00;11.93;;;;;;;;;;5013925;28;20223;-80
2023/08/20 06:56:41;;;;;;;13.13;11.80;;;;;;;;;;5018538;28;20230;-82
2023/08/20 06:59:06;;;;;;;12.70;11.30;;;;;;;;;;5028141;28;20901;-84
2023/08/20 07:01:34;;;;;;;12.77;11.68;;;;;;;;;;5029104;28;20219;-84
2023/08/20 07:04:02;;;;;;;12.65;11.55;;;;;;;;;;5011575;28;20235;-82
2023/08/20 07:06:30;;;;;;;12.40;11.27;;;;;;;;;;5017856;28;20230;-82
2023/08/20 07:09:00;;;;;;;12.77;11.68;;;;;;;;;;5029614;28;20797;-83
2023/08/20 07:11:26;;;;;;;13.05;11.82;;;;;;;;;;5031346;28;20222;-84
2023/08/20 07:13:54;;;;;;;11.48;10.43;;;;;;;;;;5027024;28;20215;-83
2023/08/20 07:16:19;;;;;;;9.63;8.82;;;;;;;;;;5037954;28;20226;-82
2023/08/20 07:18:47;;;;;;;9.35;8.40;;;;;;;;;;5014769;28;20279;-83
2023/08/20 07:21:15;;;;;;;10.48;8.65;;;;;;;;;;5034396;28;20220;-84
2023/08/20 07:23:45;;;;;;;8.45;7.60;;;;;;;;;;5001779;28;20230;-82
2023/08/20 07:26:13;;;;;;;7.75;7.00;;;;;;;;;;5016928;28;20252;-84
2023/08/20 07:28:56;;;;;;;7.88;7.18;;;;;;;;;;5018628;28;20214;-85
2023/08/20 07:31:26;;;;;;;7.70;5.95;;;;;;;;;;5047773;28;20223;-83
2023/08/20 07:33:52;;;;;;;7.68;6.40;;;;;;;;;;5026794;28;20221;-86
2023/08/20 07:36:17;;;;;;;11.30;5.15;;;;;;;;;;5033090;28;20310;-84
2023/08/20 07:38:43;;;;;;;9.70;6.13;;;;;;;;;;5044931;28;20219;-85
2023/08/20 07:41:14;;;;;;;6.80;5.25;;;;;;;;;;5021555;28;20220;-82
2023/08/20 07:43:42;;;;;;;7.05;5.63;;;;;;;;;;5027751;28;20289;-85
2023/08/20 07:46:07;;;;;;;6.65;5.97;;;;;;;;;;5035146;28;20215;-84
2023/08/20 07:48:39;;;;;;;6.20;5.43;;;;;;;;;;5010614;28;20231;-85
2023/08/20 07:51:07;;;;;;;6.13;5.22;;;;;;;;;;5041907;28;20248;-84
2023/08/20 07:53:36;;;;;;;5.43;4.93;;;;;;;;;;5020008;28;20218;-86
2023/08/20 07:56:01;;;;;;;5.68;4.40;;;;;;;;;;5030540;28;20259;-85
2023/08/20 07:58:43;;;;;;;7.30;4.13;;;;;;;;;;5054325;28;20280;-82
2023/08/20 08:01:09;;;;;;;5.50;3.80;;;;;;;;;;5044613;28;20246;-86
2023/08/20 08:03:34;;;;;;;6.13;3.75;;;;;;;;;;5031233;28;20345;-82
2023/08/20 08:06:02;;;;;;;4.68;3.92;;;;;;;;;;5064175;28;20243;-85
2023/08/20 08:08:30;;;;;;;6.63;3.55;;;;;;;;;;5014323;28;20227;-83
2023/08/20 08:10:56;;;;;;;3.70;2.80;;;;;;;;;;5044169;28;20222;-84
2023/08/20 08:13:22;;;;;;;5.93;2.33;;;;;;;;;;5040091;28;21053;-83
2023/08/20 08:15:50;;;;;;;3.42;3.13;;;;;;;;;;5040577;28;20246;-86
2023/08/20 08:18:16;;;;;;;4.47;2.85;;;;;;;;;;5060337;28;20233;-84
2023/08/20 08:20:42;;;;;;;4.47;2.40;;;;;;;;;;5043803;28;20226;-85
2023/08/20 08:23:07;;;;;;;4.40;2.28;;;;;;;;;;5026622;28;20250;-83
2023/08/20 08:25:33;;;;;;;4.88;2.50;;;;;;;;;;5037270;28;20250;-85
2023/08/20 08:28:01;;;;;;;5.53;2.33;;;;;;;;;;5046126;28;20215;-85
2023/08/20 08:30:27;;;;;;;3.67;1.90;;;;;;;;;;5074441;28;20229;-84
2023/08/20 08:32:52;;;;;;;3.97;1.92;;;;;;;;;;5037699;28;20226;-83
2023/08/20 08:35:19;;;;;;;2.10;1.65;;;;;;;;;;5037399;28;20265;-85
2023/08/20 08:37:47;;;;;;;2.88;1.90;;;;;;;;;;5011491;28;20207;-82
2023/08/20 08:40:13;;;;;;;4.28;2.00;;;;;;;;;;4997854;28;20298;-83
2023/08/20 08:42:42;;;;;;;3.35;2.00;;;;;;;;;;5041158;28;20223;-86
2023/08/20 08:45:23;;;;;;;3.72;2.20;;;;;;;;;;5023956;28;20215;-84
2023/08/20 08:47:51;;;;;;;3.88;2.30;;;;;;;;;;5044468;28;20291;-85
2023/08/20 08:50:19;;;;;;;3.70;2.00;;;;;;;;;;5039286;28;20762;-84
2023/08/20 08:52:45;;;;;;;8.02;1.85;;;;;;;;;;5035831;28;20223;-84
2023/08/20 08:55:15;;;;;;;3.58;1.90;;;;;;;;;;5020024;28;20218;-85
2023/08/20 08:57:43;;;;;;;4.63;2.35;;;;;;;;;;4999490;28;20707;-85
2023/08/20 09:00:16;;;;;;;5.15;2.58;;;;;;;;;;5027945;28;20226;-83
2023/08/20 09:02:42;;;;;;;5.05;2.28;;;;;;;;;;5039611;28;20976;-86
2023/08/20 09:05:08;;;;;;;3.00;2.38;;;;;;;;;;5062632;28;20212;-85
2023/08/20 09:07:33;;;;;;;3.22;2.65;;;;;;;;;;5042610;28;20215;-84
2023/08/20 09:10:04;;;;;;;3.17;2.45;;;;;;;;;;5009849;28;20302;-85
2023/08/20 09:12:39;;;;;;;3.45;2.05;;;;;;;;;;5040059;28;20245;-85
2023/08/20 09:15:12;;;;;;;3.92;2.35;;;;;;;;;;5037170;28;20219;-83
2023/08/20 09:17:42;;;;;;;3.65;2.20;;;;;;;;;;5022094;28;20214;-82
2023/08/20 09:20:11;;;;;;;3.17;2.10;;;;;;;;;;5017886;28;20301;-84
2023/08/20 09:22:45;;;;;;;3.13;2.28;;;;;;;;;;5038636;28;20284;-82
2023/08/20 09:25:17;;;;;;;3.03;2.08;;;;;;;;;;5039058;28;20219;-82
2023/08/20 09:27:43;;;;;;;4.32;2.40;;;;;;;;;;5051171;28;20225;-85
2023/08/20 09:30:12;;;;;;;3.88;2.22;;;;;;;;;;5025525;28;20221;-81
2023/08/20 09:32:40;;;;;;;5.13;2.95;;;;;;;;;;5021154;28;20219;-83
2023/08/20 09:35:06;;;;;;;2.83;2.28;;;;;;;;;;5035462;28;20223;-85
2023/08/20 09:37:34;;;;;;;3.42;2.30;;;;;;;;;;5029917;28;20246;-84
2023/08/20 09:40:00;;;;;;;3.60;2.88;;;;;;;;;;5033602;28;20301;-84
2023/08/20 09:42:30;;;;;;;5.05;2.40;;;;;;;;;;5052388;28;20234;-82
2023/08/20 09:45:00;;;;;;;4.72;2.97;;;;;;;;;;5015886;28;20227;-85
2023/08/20 09:47:30;;;;;;;3.55;2.13;;;;;;;;;;5036871;28;20294;-84
2023/08/20 09:49:56;;;;;;;4.78;2.70;;;;;;;;;;5023250;28;20231;-82
2023/08/20 09:52:52;;;;;;;3.78;2.25;;;;;;;;;;5040857;28;20227;-81
2023/08/20 09:55:22;;;;;;;4.32;2.55;;;;;;;;;;5032281;28;20241;-81
2023/08/20 09:57:52;;;;;;;2.60;2.40;;;;;;;;;;5030315;28;20329;-80
2023/08/20 10:00:21;;;;;;;3.22;2.20;;;;;;;;;;5032903;28;20242;-83
2023/08/20 10:02:51;;;;;;;6.70;2.65;;;;;;;;;;5007855;28;20214;-83
2023/08/20 10:05:16;;;;;;;3.15;2.47;;;;;;;;;;5018064;28;20235;-85
2023/08/20 10:07:46;;;;;;;3.55;2.53;;;;;;;;;;5028027;28;20567;-83
2023/08/20 10:10:13;;;;;;;5.45;3.13;;;;;;;;;;5012084;28;20250;-85
2023/08/20 10:12:39;;;;;;;2.88;2.65;;;;;;;;;;5022075;28;20369;-83
2023/08/20 10:15:05;;;;;;;3.95;2.75;;;;;;;;;;5030249;28;20207;-84
2023/08/20 10:17:35;;;;;;;3.97;2.42;;;;;;;;;;5030002;28;20226;-87
2023/08/20 10:20:04;;;;;;;3.00;2.25;;;;;;;;;;5016500;28;20247;-84
2023/08/20 10:22:37;;;;;;;5.07;2.28;;;;;;;;;;5011470;28;20231;-85
2023/08/20 10:25:06;;;;;;;4.97;2.40;;;;;;;;;;5028586;28;20297;-83
2023/08/20 10:27:33;;;;;;;4.53;2.40;;;;;;;;;;5031462;28;20276;-84
2023/08/20 10:29:59;;;;;;;6.18;2.50;;;;;;;;;;5049986;28;20244;-85
2023/08/20 10:32:50;;;;;;;3.03;2.05;;;;;;;;;;5023202;28;20219;-84
2023/08/20 10:35:16;;;;;;;3.88;2.17;;;;;;;;;;5040602;28;20339;-84
2023/08/20 10:38:10;;;;;;;4.15;2.40;;;;;;;;;;5012408;28;20602;-78
2023/08/20 10:40:55;;;;;;;2.30;1.95;;;;;;;;;;5058975;28;20771;-78
2023/08/20 10:43:41;;;;;;;2.97;2.22;;;;;;;;;;5030009;28;20230;-78
2023/08/20 10:46:20;;;;;;;4.32;2.33;;;;;;;;;;5057269;28;20251;-79
2023/08/20 10:49:15;;;;;;;3.05;2.20;;;;;;;;;;5034048;28;20322;-81
2023/08/20 10:51:43;;;;;;;3.28;2.28;;;;;;;;;;5040427;28;20253;-79
2023/08/20 10:54:10;;;;;;;4.13;1.92;;;;;;;;;;5031982;28;20234;-79
2023/08/20 10:56:45;;;;;;;1.83;1.70;;;;;;;;;;5029826;28;20754;-79
2023/08/20 10:59:23;;;;;;;3.90;1.77;;;;;;;;;;5062669;28;20686;-79
2023/08/20 11:01:52;;;;;;;4.82;1.90;;;;;;;;;;5046964;28;20226;-78
2023/08/20 11:04:21;;;;;;;4.45;2.45;;;;;;;;;;5045420;28;20233;-79
2023/08/20 11:06:52;;;;;;;2.95;1.90;;;;;;;;;;5036530;28;20218;-79
2023/08/20 11:09:17;;;;;;;3.08;1.85;;;;;;;;;;5010492;28;20222;-80
2023/08/20 11:11:43;;;;;;;5.88;2.30;;;;;;;;;;5025170;28;20227;-79
2023/08/20 11:14:16;;;;;;;4.10;2.10;;;;;;;;;;5029514;28;20693;-79
2023/08/20 11:16:44;;;;;;;3.40;2.05;;;;;;;;;;5037058;28;20227;-79
2023/08/20 11:19:13;;;;;;;3.40;1.95;;;;;;;;;;5033830;28;20219;-78
2023/08/20 11:21:44;;;;;;;2.70;1.80;;;;;;;;;;5032516;28;20219;-79
2023/08/20 11:24:09;;;;;;;3.28;1.52;;;;;;;;;;4999990;28;20222;-79
2023/08/20 11:26:38;;;;;;;5.03;1.70;;;;;;;;;;5029477;28;20238;-79
2023/08/20 11:29:12;;;;;;;4.60;1.98;;;;;;;;;;5038818;28;20243;-78
2023/08/20 11:31:39;;;;;;;5.18;1.60;;;;;;;;;;5055293;28;20214;-79
2023/08/20 11:34:05;;;;;;;3.97;1.92;;;;;;;;;;5048925;28;20233;-79
2023/08/20 11:36:33;;;;;;;2.97;2.17;;;;;;;;;;5069363;28;20223;-78
2023/08/20 11:38:58;;;;;;;2.55;2.03;;;;;;;;;;5034005;28;20215;-78
2023/08/20 11:41:26;;;;;;;4.85;2.00;;;;;;;;;;5065074;28;20226;-78
2023/08/20 11:43:53;;;;;;;5.63;1.92;;;;;;;;;;5023433;28;20295;-79
2023/08/20 11:46:22;;;;;;;2.95;1.70;;;;;;;;;;5052574;28;20251;-80
2023/08/20 11:49:03;;;;;;;5.03;2.00;;;;;;;;;;5045952;28;20223;-80
2023/08/20 11:51:30;;;;;;;3.08;1.70;;;;;;;;;;5017693;28;20267;-79
2023/08/20 11:54:00;;;;;;;2.92;1.83;;;;;;;;;;5045240;28;20226;-80
2023/08/20 11:56:26;;;;;;;2.95;1.98;;;;;;;;;;5045554;28;20223;-78
2023/08/20 11:58:52;;;;;;;2.20;2.00;;;;;;;;;;5049642;28;20227;-79
2023/08/20 12:01:20;;;;;;;3.72;1.98;;;;;;;;;;5001263;28;20214;-80
2023/08/20 12:03:46;;;;;;;5.93;2.45;;;;;;;;;;5033148;28;20699;-80
2023/08/20 12:06:23;;;;;;;2.70;2.20;;;;;;;;;;5048032;28;20324;-80
2023/08/20 12:08:51;;;;;;;3.58;2.03;;;;;;;;;;5022423;28;20233;-79
2023/08/20 12:11:17;;;;;;;4.15;2.17;;;;;;;;;;5041550;28;20620;-79
2023/08/20 12:13:42;;;;;;;5.10;1.83;;;;;;;;;;5034388;28;20296;-80
2023/08/20 12:16:08;;;;;;;3.15;2.00;;;;;;;;;;5031139;28;20222;-80
2023/08/20 12:18:36;;;;;;;4.72;1.85;;;;;;;;;;5050328;28;20614;-80
2023/08/20 12:21:02;;;;;;;3.40;1.83;;;;;;;;;;5044365;28;20223;-81
2023/08/20 12:23:27;;;;;;;3.70;2.08;;;;;;;;;;5030170;28;20274;-81
2023/08/20 12:25:53;;;;;;;2.50;2.03;;;;;;;;;;5065979;28;20229;-79
2023/08/20 12:28:18;;;;;;;2.67;1.60;;;;;;;;;;5016270;28;20230;-81
2023/08/20 12:30:46;;;;;;;2.55;1.90;;;;;;;;;;5012892;28;20215;-79
2023/08/20 12:33:15;;;;;;;2.65;1.70;;;;;;;;;;5061353;28;20230;-79
2023/08/20 12:35:40;;;;;;;3.33;2.00;;;;;;;;;;5046588;28;20240;-78
2023/08/20 12:38:07;;;;;;;5.20;2.15;;;;;;;;;;5057412;28;20230;-81
2023/08/20 12:40:33;;;;;;;3.08;1.77;;;;;;;;;;5043119;28;20214;-79
2023/08/20 12:42:58;;;;;;;2.25;1.88;;;;;;;;;;5042204;28;20229;-79
2023/08/20 12:45:26;;;;;;;4.18;2.00;;;;;;;;;;5015947;28;20227;-78
2023/08/20 12:47:52;;;;;;;5.50;2.10;;;;;;;;;;5012442;28;20223;-79
2023/08/20 12:50:17;;;;;;;1.77;1.48;;;;;;;;;;5026296;28;20226;-82
2023/08/20 12:52:43;;;;;;;1.92;1.73;;;;;;;;;;5056773;28;20231;-80
2023/08/20 12:55:11;;;;;;;2.20;1.83;;;;;;;;;;5056187;28;20211;-81
2023/08/20 12:57:39;;;;;;;1.75;1.65;;;;;;;;;;5039178;28;20249;-82
2023/08/20 13:00:13;;;;;;;2.90;1.90;;;;;;;;;;5050499;28;20237;-81
2023/08/20 13:02:39;;;;;;;2.38;1.90;;;;;;;;;;5042040;28;20242;-81
2023/08/20 13:05:09;;;;;;;4.28;1.67;;;;;;;;;;5066845;28;20207;-79
2023/08/20 13:07:37;;;;;;;2.30;1.92;;;;;;;;;;5023846;28;20637;-78
2023/08/20 13:10:08;;;;;;;3.72;1.90;;;;;;;;;;5030345;28;20224;-84
2023/08/20 13:12:33;;;;;;;3.22;2.03;;;;;;;;;;5047953;28;20291;-84
2023/08/20 13:15:03;;;;;;;4.40;1.77;;;;;;;;;;5033464;28;20218;-83
2023/08/20 13:17:34;;;;;;;2.75;2.03;;;;;;;;;;5002791;28;20231;-83
2023/08/20 13:20:00;;;;;;;1.80;1.70;;;;;;;;;;5012945;28;20236;-83
2023/08/20 13:22:25;;;;;;;4.50;1.90;;;;;;;;;;5022253;28;20224;-82
2023/08/20 13:25:00;;;;;;;2.20;2.00;;;;;;;;;;5024961;28;20222;-81
2023/08/20 13:27:29;;;;;;;3.45;2.00;;;;;;;;;;5028003;28;20814;-82
2023/08/20 13:30:01;;;;;;;2.33;1.60;;;;;;;;;;5028485;28;20215;-84
2023/08/20 13:32:26;;;;;;;2.22;1.92;;;;;;;;;;5047549;28;20759;-83
2023/08/20 13:34:54;;;;;;;3.00;1.67;;;;;;;;;;5045284;28;20207;-86
2023/08/20 13:37:31;;;;;;;3.08;1.70;;;;;;;;;;5024227;28;20318;-83
2023/08/20 13:39:58;;;;;;;2.53;2.00;;;;;;;;;;5046950;28;20234;-82
2023/08/20 13:42:33;;;;;;;2.63;1.92;;;;;;;;;;5037672;28;20572;-85
2023/08/20 13:45:20;;;;;;;3.75;2.17;;;;;;;;;;5029321;28;20215;-84
2023/08/20 13:47:49;;;;;;;3.80;1.80;;;;;;;;;;5031328;28;20223;-83
2023/08/20 13:50:18;;;;;;;2.22;2.03;;;;;;;;;;5033563;28;20270;-84
2023/08/20 13:52:43;;;;;;;5.03;1.80;;;;;;;;;;5023279;28;20299;-81
2023/08/20 13:55:12;;;;;;;5.57;2.10;;;;;;;;;;5038767;28;20222;-82
2023/08/20 13:57:40;;;;;;;3.88;2.05;;;;;;;;;;5024130;28;20234;-82
2023/08/20 14:00:11;;;;;;;4.18;1.88;;;;;;;;;;5038166;28;20242;-82
2023/08/20 14:02:58;;;;;;;4.57;1.98;;;;;;;;;;5023222;28;20235;-82
2023/08/20 14:05:24;;;;;;;3.75;1.92;;;;;;;;;;5026650;28;20233;-84
2023/08/20 14:07:56;;;;;;;3.60;1.95;;;;;;;;;;5040884;28;20210;-83
2023/08/20 14:10:25;;;;;;;4.07;2.10;;;;;;;;;;5029771;28;20219;-81
2023/08/20 14:13:02;;;;;;;2.25;1.60;;;;;;;;;;5021170;28;20570;-83
2023/08/20 14:15:28;;;;;;;2.25;1.90;;;;;;;;;;5040204;28;20253;-83
2023/08/20 14:17:54;;;;;;;3.55;1.98;;;;;;;;;;5033614;28;20216;-84
2023/08/20 14:20:19;;;;;;;2.60;1.90;;;;;;;;;;5035724;28;20237;-82
2023/08/20 14:22:48;;;;;;;2.25;1.67;;;;;;;;;;5021385;28;20222;-84
2023/08/20 14:25:18;;;;;;;3.95;3.47;;;;;;;;;;5046697;28;20230;-84
2023/08/20 14:27:44;;;;;;;2.10;1.90;;;;;;;;;;5038508;28;20234;-83
2023/08/20 14:30:10;;;;;;;3.53;1.92;;;;;;;;;;5033803;28;20223;-84
2023/08/20 14:33:08;;;;;;;2.63;2.08;;;;;;;;;;5007953;28;20219;-82
2023/08/20 14:35:37;;;;;;;3.60;1.95;;;;;;;;;;5039484;28;20230;-82
2023/08/20 14:38:07;;;;;;;2.58;1.85;;;;;;;;;;5042538;28;20222;-84
2023/08/20 14:40:36;;;;;;;2.75;2.03;;;;;;;;;;5026731;28;20223;-82